createdAt,value
2022-09-17T00:01:57.452Z,100854.84
2022-09-17T00:04:23.224Z,100857.94
2022-09-17T00:06:48.894Z,100862.66
2022-09-17T00:09:14.838Z,100862.34
2022-09-17T00:11:41.319Z,100858.75
2022-09-17T00:14:08.562Z,100863.19
2022-09-17T00:16:35.671Z,100860.41
2022-09-17T00:19:01.925Z,100862.91
2022-09-17T00:21:27.877Z,100855.41
2022-09-17T00:23:55.554Z,100861.25
2022-09-17T00:26:21.226Z,100858.47
2022-09-17T00:28:50.565Z,100859.31
2022-09-17T00:31:16.431Z,100865.94
2022-09-17T00:33:42.122Z,100864.03
2022-09-17T00:36:07.785Z,100856.00
2022-09-17T00:38:33.569Z,100870.16
2022-09-17T00:40:59.459Z,100861.53
2022-09-17T00:43:33.100Z,100870.69
2022-09-17T00:45:58.986Z,100871.50
2022-09-17T00:48:24.583Z,100880.13
2022-09-17T00:50:50.257Z,100875.41
2022-09-17T00:53:16.735Z,100872.63
2022-09-17T00:55:43.353Z,100871.50
2022-09-17T00:58:09.538Z,100878.19
2022-09-17T01:00:35.250Z,100878.19
2022-09-17T01:03:00.990Z,100883.72
2022-09-17T01:05:30.382Z,100880.13
2022-09-17T01:08:00.805Z,100877.34
2022-09-17T01:10:46.348Z,100877.34
2022-09-17T01:13:17.583Z,100882.38
2022-09-17T01:16:01.796Z,100888.72
2022-09-17T01:18:33.333Z,100892.63
2022-09-17T01:21:19.015Z,100886.81
2022-09-17T01:23:50.494Z,100890.69
2022-09-17T01:26:24.143Z,100888.72
2022-09-17T01:29:09.834Z,100887.63
2022-09-17T01:31:38.136Z,100893.19
2022-09-17T01:34:23.727Z,100892.34
2022-09-17T01:36:52.530Z,100895.94
2022-09-17T01:39:24.202Z,100891.50
2022-09-17T01:41:51.398Z,100887.91
2022-09-17T01:44:37.030Z,100894.81
2022-09-17T01:47:04.614Z,100895.41
2022-09-17T01:49:30.987Z,100895.41
2022-09-17T01:51:56.621Z,100893.47
2022-09-17T01:54:23.285Z,100895.41
2022-09-17T01:56:51.432Z,100905.38
2022-09-17T01:59:19.347Z,100899.00
2022-09-17T02:01:45.613Z,100908.16
2022-09-17T02:04:15.594Z,100904.00
2022-09-17T02:06:42.554Z,100903.19
2022-09-17T02:09:15.447Z,100904.00
2022-09-17T02:11:41.499Z,100908.44
2022-09-17T02:14:07.697Z,100902.06
2022-09-17T02:16:33.906Z,100904.00
2022-09-17T02:19:01.948Z,100909.56
2022-09-17T02:21:33.598Z,100913.97
2022-09-17T02:26:40.309Z,100905.97
2022-09-17T02:29:08.099Z,100909.56
2022-09-17T02:31:33.885Z,100913.16
2022-09-17T02:34:00.823Z,100915.94
2022-09-17T02:36:26.848Z,100917.88
2022-09-17T02:38:54.225Z,100913.97
2022-09-17T02:41:21.587Z,100909.56
2022-09-17T02:43:57.863Z,100909.06
2022-09-17T02:46:28.732Z,100913.47
2022-09-17T02:49:14.361Z,100912.66
2022-09-17T02:51:44.278Z,100917.88
2022-09-17T02:54:19.855Z,100913.16
2022-09-17T02:56:51.258Z,100924.25
2022-09-17T02:59:41.073Z,100920.66
2022-09-17T03:02:09.566Z,100926.19
2022-09-17T03:04:35.194Z,100923.75
2022-09-17T03:07:05.253Z,100922.28
2022-09-17T03:09:30.862Z,100926.50
2022-09-17T03:11:56.441Z,100927.34
2022-09-17T03:14:22.051Z,100923.75
2022-09-17T03:16:47.630Z,100921.25
2022-09-17T03:19:13.220Z,100922.59
2022-09-17T03:21:38.829Z,100928.16
2022-09-17T03:24:04.452Z,100926.19
2022-09-17T03:26:30.039Z,100919.00
2022-09-17T03:28:55.690Z,100920.16
2022-09-17T03:31:21.306Z,100918.19
2022-09-17T03:33:47.071Z,100917.38
2022-09-17T03:36:12.655Z,100923.75
2022-09-17T03:38:38.279Z,100916.56
2022-09-17T03:41:06.314Z,100920.97
2022-09-17T03:43:31.949Z,100912.09
2022-09-17T03:45:57.546Z,100916.56
2022-09-17T03:48:23.150Z,100935.97
2022-09-17T03:50:48.782Z,100932.88
2022-09-17T03:53:14.728Z,100929.28
2022-09-17T03:55:40.413Z,100932.34
2022-09-17T03:58:06.090Z,100931.53
2022-09-17T04:00:31.807Z,100934.28
2022-09-17T04:02:57.447Z,100932.34
2022-09-17T04:05:23.090Z,100936.25
2022-09-17T04:07:48.897Z,100935.97
2022-09-17T04:10:14.514Z,100935.13
2022-09-17T04:12:40.161Z,100944.28
2022-09-17T04:15:06.065Z,100942.63
2022-09-17T04:17:31.718Z,100943.44
2022-09-17T04:19:57.696Z,100946.22
2022-09-17T04:22:23.527Z,100950.13
2022-09-17T04:24:49.110Z,100948.97
2022-09-17T04:27:14.700Z,100946.53
2022-09-17T04:29:40.357Z,100938.19
2022-09-17T04:32:06.306Z,100954.84
2022-09-17T04:34:32.363Z,100946.53
2022-09-17T04:36:58.022Z,100956.78
2022-09-17T04:39:23.631Z,100952.88
2022-09-17T04:41:49.219Z,100961.22
2022-09-17T04:44:14.798Z,100963.97
2022-09-17T04:46:40.515Z,100958.75
2022-09-17T04:49:06.857Z,100953.19
2022-09-17T04:51:32.587Z,100962.03
2022-09-17T04:53:58.229Z,100953.19
2022-09-17T04:56:23.879Z,100954.03
2022-09-17T04:58:49.507Z,100952.38
2022-09-17T05:01:17.953Z,100955.16
2022-09-17T05:03:44.138Z,100957.59
2022-09-17T05:06:09.876Z,100962.34
2022-09-17T05:08:35.479Z,100970.97
2022-09-17T05:11:01.268Z,100974.56
2022-09-17T05:13:26.891Z,100972.59
2022-09-17T05:15:53.827Z,100976.50
2022-09-17T05:18:19.479Z,100971.78
2022-09-17T05:20:45.126Z,100975.66
2022-09-17T05:23:10.711Z,100961.78
2022-09-17T05:25:36.294Z,100972.59
2022-09-17T05:28:01.938Z,100977.34
2022-09-17T05:30:27.533Z,100981.22
2022-09-17T05:33:01.322Z,100980.38
2022-09-17T05:35:26.917Z,100982.06
2022-09-17T05:37:55.690Z,100981.75
2022-09-17T05:40:21.347Z,100988.13
2022-09-17T05:42:47.062Z,100992.03
2022-09-17T05:45:12.717Z,100993.16
2022-09-17T05:47:38.346Z,100984.84
2022-09-17T05:50:04.137Z,100990.06
2022-09-17T05:52:29.718Z,100984.84
2022-09-17T05:54:55.477Z,100995.06
2022-09-17T05:57:21.238Z,101001.75
2022-09-17T05:59:46.823Z,101000.94
2022-09-17T06:02:13.025Z,101000.09
2022-09-17T06:04:38.641Z,100991.47
2022-09-17T06:07:06.601Z,101005.34
2022-09-17T06:09:33.846Z,101007.28
2022-09-17T06:11:59.559Z,101015.63
2022-09-17T06:14:25.148Z,101012.03
2022-09-17T06:16:50.730Z,101018.69
2022-09-17T06:19:16.317Z,101019.53
2022-09-17T06:21:41.922Z,101021.16
2022-09-17T06:24:08.986Z,101020.34
2022-09-17T06:26:34.579Z,101021.97
2022-09-17T06:29:00.339Z,101023.94
2022-09-17T06:31:26.097Z,101024.75
2022-09-17T06:33:51.766Z,101025.06
2022-09-17T06:36:17.371Z,101022.28
2022-09-17T06:38:43.030Z,101033.38
2022-09-17T06:41:08.746Z,101032.56
2022-09-17T06:43:34.390Z,101029.78
2022-09-17T06:46:00.913Z,101031.44
2022-09-17T06:48:26.765Z,101033.38
2022-09-17T06:50:53.569Z,101036.16
2022-09-17T06:53:19.706Z,101036.97
2022-09-17T06:55:45.294Z,101040.88
2022-09-17T06:58:10.885Z,101043.66
2022-09-17T07:00:36.498Z,101042.84
2022-09-17T07:03:02.175Z,101040.88
2022-09-17T07:05:28.438Z,101050.34
2022-09-17T07:07:54.044Z,101051.97
2022-09-17T07:10:19.970Z,101048.66
2022-09-17T07:12:49.673Z,101050.34
2022-09-17T07:15:15.769Z,101049.19
2022-09-17T07:17:42.417Z,101046.44
2022-09-17T07:20:08.436Z,101036.47
2022-09-17T07:22:34.309Z,101037.28
2022-09-17T07:24:59.906Z,101038.09
2022-09-17T07:27:26.895Z,101044.78
2022-09-17T07:29:52.526Z,101044.47
2022-09-17T07:32:18.122Z,101034.78
2022-09-17T07:34:43.704Z,101036.47
2022-09-17T07:37:09.324Z,101035.66
2022-09-17T07:39:34.946Z,101035.66
2022-09-17T07:42:00.549Z,101046.72
2022-09-17T07:44:27.191Z,101037.28
2022-09-17T07:46:52.879Z,101036.47
2022-09-17T07:49:19.106Z,101033.69
2022-09-17T07:51:44.807Z,101047.56
2022-09-17T07:54:10.386Z,101040.34
2022-09-17T07:56:35.986Z,101048.38
2022-09-17T07:59:01.881Z,101050.03
2022-09-17T08:01:27.519Z,101048.06
2022-09-17T08:03:53.482Z,101050.34
2022-09-17T08:06:20.161Z,101051.97
2022-09-17T08:08:46.143Z,101053.09
2022-09-17T08:11:13.454Z,101053.38
2022-09-17T08:13:39.301Z,101048.66
2022-09-17T08:16:06.005Z,101042.00
2022-09-17T08:18:31.833Z,101045.88
2022-09-17T08:20:58.520Z,101041.19
2022-09-17T08:23:24.659Z,101048.66
2022-09-17T08:25:52.085Z,101048.66
2022-09-17T08:28:17.883Z,101048.66
2022-09-17T08:30:43.562Z,101038.69
2022-09-17T08:33:09.166Z,101047.00
2022-09-17T08:35:34.750Z,101051.44
2022-09-17T08:38:00.537Z,101049.50
2022-09-17T08:40:27.011Z,101056.16
2022-09-17T08:42:56.579Z,101056.97
2022-09-17T08:45:22.244Z,101056.47
2022-09-17T08:47:47.885Z,101059.75
2022-09-17T08:50:16.190Z,101056.97
2022-09-17T08:53:02.003Z,101049.78
2022-09-17T08:55:34.316Z,101050.59
2022-09-17T08:58:05.494Z,101046.72
2022-09-17T09:00:38.566Z,101056.97
2022-09-17T09:03:17.431Z,101051.44
2022-09-17T09:05:43.967Z,101054.19
2022-09-17T09:08:16.215Z,101060.59
2022-09-17T09:10:48.155Z,101052.28
2022-09-17T09:13:14.609Z,101053.38
2022-09-17T09:15:41.742Z,101064.47
2022-09-17T09:18:11.790Z,101055.34
2022-09-17T09:20:40.750Z,101053.69
2022-09-17T09:23:10.192Z,101060.06
2022-09-17T09:25:38.557Z,101057.28
2022-09-17T09:28:24.107Z,101056.78
2022-09-17T09:30:54.369Z,101052.56
2022-09-17T09:33:24.047Z,101049.78
2022-09-17T09:35:49.633Z,101055.63
2022-09-17T09:38:17.842Z,101050.09
2022-09-17T09:40:46.119Z,101053.69
2022-09-17T09:43:14.930Z,101051.72
2022-09-17T09:46:00.468Z,101050.59
2022-09-17T09:48:29.910Z,101052.88
2022-09-17T09:51:06.705Z,101061.19
2022-09-17T09:53:43.742Z,101068.38
2022-09-17T09:56:19.636Z,101062.00
2022-09-17T09:58:45.267Z,101056.47
2022-09-17T10:01:12.767Z,101052.03
2022-09-17T10:03:39.339Z,101052.03
2022-09-17T10:06:05.874Z,101051.72
2022-09-17T10:08:32.527Z,101039.81
2022-09-17T10:11:00.354Z,101046.19
2022-09-17T10:13:26.450Z,101043.41
2022-09-17T10:15:52.230Z,101036.22
2022-09-17T10:18:19.745Z,101034.59
2022-09-17T10:20:50.095Z,101032.31
2022-09-17T10:23:15.930Z,101021.22
2022-09-17T10:25:42.637Z,101034.28
2022-09-17T10:28:20.740Z,101034.88
2022-09-17T10:31:09.425Z,101032.09
2022-09-17T10:33:36.165Z,101026.25
2022-09-17T10:36:05.844Z,101027.91
2022-09-17T10:38:32.580Z,101026.25
2022-09-17T10:41:14.518Z,101014.03
2022-09-17T10:43:40.685Z,101029.84
2022-09-17T10:46:07.668Z,101018.78
2022-09-17T10:48:35.899Z,101012.91
2022-09-17T10:51:02.547Z,101009.09
2022-09-17T10:53:28.286Z,101013.22
2022-09-17T10:55:57.781Z,101008.19
2022-09-17T10:58:24.241Z,101011.28
2022-09-17T11:00:54.462Z,101009.63
2022-09-17T11:03:40.035Z,101008.50
2022-09-17T11:06:25.584Z,101002.94
2022-09-17T11:11:51.219Z,101012.41
2022-09-17T11:14:23.686Z,100997.91
2022-09-17T11:17:09.236Z,101014.03
2022-09-17T11:19:39.362Z,101029.84
2022-09-17T11:22:10.833Z,101034.28
2022-09-17T11:24:44.955Z,101049.78
2022-09-17T11:27:30.523Z,101046.50
2022-09-17T11:30:16.068Z,101052.03
2022-09-17T11:33:00.288Z,101045.69
2022-09-17T11:35:26.866Z,101050.69
2022-09-17T11:38:01.711Z,101047.91
2022-09-17T11:40:47.257Z,101036.00
2022-09-17T11:43:16.014Z,101041.53
2022-09-17T11:45:46.354Z,101031.25
2022-09-17T11:48:13.198Z,101042.06
2022-09-17T11:50:42.085Z,101037.13
2022-09-17T11:53:27.739Z,101035.69
2022-09-17T11:55:55.260Z,101033.22
2022-09-17T11:58:25.459Z,101029.63
2022-09-17T12:00:53.294Z,101028.19
2022-09-17T12:03:23.955Z,101027.38
2022-09-17T12:05:51.427Z,101026.03
2022-09-17T12:08:34.121Z,101019.34
2022-09-17T12:11:09.090Z,101013.00
2022-09-17T12:13:36.221Z,101005.50
2022-09-17T12:16:06.158Z,101008.25
2022-09-17T12:18:51.720Z,101006.31
2022-09-17T12:21:26.918Z,101007.44
2022-09-17T12:23:55.135Z,101005.50
2022-09-17T12:26:31.617Z,101001.59
2022-09-17T12:29:07.971Z,101016.28
2022-09-17T12:31:37.276Z,101052.63
2022-09-17T12:34:12.971Z,101065.91
2022-09-17T12:36:42.049Z,101056.22
2022-09-17T12:39:11.994Z,101053.44
2022-09-17T12:41:57.553Z,101044.31
2022-09-17T12:44:43.119Z,101034.34
2022-09-17T12:47:22.218Z,101035.16
2022-09-17T12:49:54.047Z,101029.63
2022-09-17T12:52:24.954Z,101022.44
2022-09-17T12:55:10.499Z,101011.34
2022-09-17T12:57:56.357Z,101022.44
2022-09-17T13:00:21.946Z,101024.66
2022-09-17T13:03:04.125Z,101018.00
2022-09-17T13:05:49.674Z,101016.06
2022-09-17T13:08:35.221Z,101009.66
2022-09-17T13:11:06.015Z,101000.53
2022-09-17T13:13:48.774Z,101001.34
2022-09-17T13:16:20.108Z,100996.66
2022-09-17T13:19:15.945Z,100995.00
2022-09-17T13:22:01.881Z,100981.94
2022-09-17T13:24:30.226Z,100988.34
2022-09-17T13:26:57.851Z,100987.50
2022-09-17T13:29:44.386Z,100980.03
2022-09-17T13:32:29.937Z,100967.56
2022-09-17T13:34:55.511Z,100970.03
2022-09-17T13:37:21.715Z,100964.22
2022-09-17T13:39:47.469Z,100970.84
2022-09-17T13:42:28.875Z,100969.22
2022-09-17T13:45:02.893Z,100959.75
2022-09-17T13:47:29.450Z,100956.78
2022-09-17T13:49:59.764Z,100951.75
2022-09-17T13:52:45.314Z,100957.00
2022-09-17T13:55:29.505Z,100960.91
2022-09-17T13:57:55.103Z,100958.94
2022-09-17T14:00:41.354Z,100972.00
2022-09-17T14:03:26.950Z,100962.03
2022-09-17T14:05:52.526Z,100976.41
2022-09-17T14:08:28.448Z,100985.03
2022-09-17T14:10:54.389Z,100988.63
2022-09-17T14:13:24.395Z,100990.25
2022-09-17T14:15:54.196Z,100986.66
2022-09-17T14:18:34.486Z,100992.53
2022-09-17T14:21:18.339Z,100996.94
2022-09-17T14:23:44.862Z,101009.16
2022-09-17T14:26:12.470Z,100998.06
2022-09-17T14:28:40.139Z,101002.78
2022-09-17T14:31:09.226Z,101004.44
2022-09-17T14:33:34.820Z,101005.25
2022-09-17T14:36:08.062Z,101004.44
2022-09-17T14:38:43.518Z,101011.94
2022-09-17T14:43:58.083Z,101005.56
2022-09-17T14:46:24.360Z,101000.84
2022-09-17T14:48:50.066Z,101005.25
2022-09-17T14:54:15.622Z,101004.44
2022-09-17T14:56:44.306Z,101000.03
2022-09-17T14:59:14.398Z,101011.09
2022-09-17T15:01:42.542Z,101004.44
2022-09-17T15:04:18.285Z,100995.59
2022-09-17T15:06:43.914Z,100998.88
2022-09-17T15:09:25.237Z,101004.44
2022-09-17T15:11:52.412Z,101011.94
2022-09-17T15:14:19.983Z,100992.22
2022-09-17T15:16:46.335Z,100990.56
2022-09-17T15:19:13.424Z,100997.25
2022-09-17T15:21:42.920Z,100992.53
2022-09-17T15:24:13.115Z,101000.03
2022-09-17T15:26:39.457Z,101001.66
2022-09-17T15:29:05.115Z,101007.22
2022-09-17T15:31:30.872Z,101002.47
2022-09-17T15:34:00.163Z,101005.25
2022-09-17T15:36:27.310Z,101005.56
2022-09-17T15:38:53.133Z,101004.44
2022-09-17T15:41:22.646Z,101014.69
2022-09-17T15:43:48.841Z,101007.22
2022-09-17T15:46:29.901Z,101017.47
2022-09-17T15:48:57.521Z,101008.34
2022-09-17T15:51:26.383Z,101018.88
2022-09-17T15:53:54.297Z,101012.50
2022-09-17T15:56:21.805Z,101024.66
2022-09-17T16:04:10.090Z,101016.94
2022-09-17T16:06:36.238Z,101031.34
2022-09-17T16:09:02.207Z,101024.44
2022-09-17T16:11:29.474Z,101022.19
2022-09-17T16:13:55.661Z,101026.38
2022-09-17T16:16:22.266Z,101030.78
2022-09-17T16:18:48.327Z,101036.66
2022-09-17T16:21:14.282Z,101035.50
2022-09-17T16:23:39.994Z,101041.59
2022-09-17T16:26:05.809Z,101039.09
2022-09-17T16:28:31.414Z,101039.09
2022-09-17T16:30:57.063Z,101041.06
2022-09-17T16:33:22.874Z,101044.38
2022-09-17T16:35:48.452Z,101052.69
2022-09-17T16:38:14.239Z,101041.06
2022-09-17T16:40:41.938Z,101047.44
2022-09-17T16:43:07.994Z,101045.78
2022-09-17T16:45:33.672Z,101050.50
2022-09-17T16:47:59.315Z,101050.50
2022-09-17T16:50:25.131Z,101050.50
2022-09-17T16:52:50.882Z,101051.31
2022-09-17T16:55:16.652Z,101049.38
2022-09-17T16:57:42.309Z,101043.84
2022-09-17T17:00:12.431Z,101049.69
2022-09-17T17:02:38.231Z,101050.19
2022-09-17T17:05:04.125Z,101047.72
2022-09-17T17:07:31.278Z,101048.88
2022-09-17T17:09:58.366Z,101052.47
2022-09-17T17:12:24.123Z,101053.59
2022-09-17T17:14:51.572Z,101058.00
2022-09-17T17:17:17.565Z,101058.00
2022-09-17T17:19:43.218Z,101058.81
2022-09-17T17:22:08.833Z,101057.19
2022-09-17T17:24:34.414Z,101062.72
2022-09-17T17:27:00.903Z,101061.91
2022-09-17T17:29:26.526Z,101061.91
2022-09-17T17:31:53.274Z,101055.22
2022-09-17T17:34:18.875Z,101063.53
2022-09-17T17:36:44.637Z,101071.88
2022-09-17T17:39:10.307Z,101071.88
2022-09-17T17:41:35.944Z,101063.53
2022-09-17T17:44:01.658Z,101075.47
2022-09-17T17:46:27.282Z,101070.22
2022-09-17T17:48:52.959Z,101079.34
2022-09-17T17:51:18.630Z,101069.41
2022-09-17T17:53:44.529Z,101077.72
2022-09-17T17:56:10.558Z,101083.25
2022-09-17T17:58:36.311Z,101085.72
2022-09-17T18:01:21.877Z,101091.28
2022-09-17T18:03:47.647Z,101091.28
2022-09-17T18:06:13.350Z,101082.94
2022-09-17T18:08:39.615Z,101087.97
2022-09-17T18:11:07.331Z,101086.03
2022-09-17T18:13:33.375Z,101085.22
2022-09-17T18:15:59.875Z,101093.53
2022-09-17T18:18:30.810Z,101094.88
2022-09-17T18:20:58.984Z,101095.16
2022-09-17T18:23:24.573Z,101097.94
2022-09-17T18:25:52.033Z,101095.16
2022-09-17T18:28:17.677Z,101098.75
2022-09-17T18:30:43.287Z,101102.66
2022-09-17T18:33:09.016Z,101108.22
2022-09-17T18:35:35.889Z,101107.38
2022-09-17T18:38:05.183Z,101110.44
2022-09-17T18:40:31.104Z,101109.84
2022-09-17T18:42:56.733Z,101110.97
2022-09-17T18:45:22.321Z,101120.13
2022-09-17T18:47:47.918Z,101108.22
2022-09-17T18:50:13.600Z,101112.94
2022-09-17T18:52:39.268Z,101118.75
2022-09-17T18:55:05.180Z,101117.63
2022-09-17T18:57:30.771Z,101118.47
2022-09-17T18:59:57.685Z,101115.69
2022-09-17T19:02:23.468Z,101114.84
2022-09-17T19:04:49.157Z,101113.75
2022-09-17T19:07:14.751Z,101124.03
2022-09-17T19:09:40.367Z,101122.34
2022-09-17T19:12:06.192Z,101127.63
2022-09-17T19:14:32.043Z,101124.03
2022-09-17T19:16:57.683Z,101120.41
2022-09-17T19:19:23.262Z,101126.78
2022-09-17T19:21:49.731Z,101132.34
2022-09-17T19:24:15.444Z,101128.72
2022-09-17T19:26:41.101Z,101133.16
2022-09-17T19:29:08.244Z,101137.03
2022-09-17T19:31:33.897Z,101138.97
2022-09-17T19:33:59.577Z,101141.47
2022-09-17T19:36:25.493Z,101137.88
2022-09-17T19:38:51.215Z,101139.81
2022-09-17T19:41:17.891Z,101139.81
2022-09-17T19:43:44.417Z,101141.75
2022-09-17T19:46:11.231Z,101144.25
2022-09-17T19:48:36.907Z,101149.78
2022-09-17T19:51:03.213Z,101144.25
2022-09-17T19:53:28.854Z,101151.75
2022-09-17T19:55:54.444Z,101148.97
2022-09-17T19:58:20.029Z,101154.53
2022-09-17T20:00:45.630Z,101143.69
2022-09-17T20:03:11.463Z,101139.81
2022-09-17T20:05:37.123Z,101139.81
2022-09-17T20:08:03.180Z,101143.69
2022-09-17T20:10:29.773Z,101154.53
2022-09-17T20:12:56.007Z,101148.13
2022-09-17T20:15:21.716Z,101152.56
2022-09-17T20:17:47.311Z,101154.53
2022-09-17T20:20:12.906Z,101151.75
2022-09-17T20:22:38.555Z,101153.66
2022-09-17T20:25:04.463Z,101153.97
2022-09-17T20:27:30.097Z,101150.06
2022-09-17T20:29:55.759Z,101152.03
2022-09-17T20:32:21.355Z,101150.38
2022-09-17T20:34:49.161Z,101149.25
2022-09-17T20:37:14.999Z,101146.78
2022-09-17T20:39:40.719Z,101144.53
2022-09-17T20:42:06.421Z,101147.59
2022-09-17T20:44:32.031Z,101139.28
2022-09-17T20:46:57.735Z,101145.66
2022-09-17T20:49:23.371Z,101147.28
2022-09-17T20:51:49.031Z,101142.06
2022-09-17T20:54:14.762Z,101147.59
2022-09-17T20:56:40.412Z,101153.97
2022-09-17T20:59:12.284Z,101155.91
2022-09-17T21:01:38.249Z,101157.88
2022-09-17T21:04:06.191Z,101152.31
2022-09-17T21:06:32.958Z,101160.63
2022-09-17T21:08:59.916Z,101165.06
2022-09-17T21:11:25.618Z,101155.09
2022-09-17T21:13:51.396Z,101161.47
2022-09-17T21:16:17.259Z,101165.06
2022-09-17T21:18:42.952Z,101163.41
2022-09-17T21:21:10.403Z,101168.13
2022-09-17T21:23:36.578Z,101158.69
2022-09-17T21:26:03.775Z,101172.84
2022-09-17T21:28:30.043Z,101173.38
2022-09-17T21:31:00.887Z,101170.06
2022-09-17T21:33:26.495Z,101167.00
2022-09-17T21:35:52.092Z,101171.72
2022-09-17T21:38:19.517Z,101168.13
2022-09-17T21:41:01.390Z,101173.69
2022-09-17T21:43:27.484Z,101180.03
2022-09-17T21:45:56.775Z,101171.72
2022-09-17T21:48:22.358Z,101168.94
2022-09-17T21:50:47.983Z,101174.50
2022-09-17T21:53:13.639Z,101175.63
2022-09-17T21:55:39.232Z,101167.31
2022-09-17T21:58:04.816Z,101175.63
2022-09-17T22:00:30.500Z,101169.22
2022-09-17T22:02:57.843Z,101170.91
2022-09-17T22:05:23.647Z,101175.63
2022-09-17T22:07:49.656Z,101173.69
2022-09-17T22:10:17.225Z,101175.63
2022-09-17T22:12:43.132Z,101173.94
2022-09-17T22:15:09.405Z,101179.22
2022-09-17T22:17:35.421Z,101184.75
2022-09-17T22:20:02.151Z,101177.28
2022-09-17T22:22:27.767Z,101182.00
2022-09-17T22:24:53.347Z,101183.94
2022-09-17T22:27:18.940Z,101182.25
2022-09-17T22:29:44.515Z,101185.03
2022-09-17T22:32:10.108Z,101183.09
2022-09-17T22:34:36.140Z,101180.31
2022-09-17T22:37:02.696Z,101183.94
2022-09-17T22:39:28.522Z,101186.16
2022-09-17T22:41:54.283Z,101179.50
2022-09-17T22:44:19.921Z,101175.91
2022-09-17T22:46:46.699Z,101171.19
2022-09-17T22:49:12.491Z,101186.16
2022-09-17T22:51:38.360Z,101175.91
2022-09-17T22:54:04.389Z,101173.94
2022-09-17T22:56:30.096Z,101177.03
2022-09-17T22:58:56.364Z,101177.03
2022-09-17T23:01:22.886Z,101175.91
2022-09-17T23:03:49.639Z,101179.50
2022-09-17T23:06:16.423Z,101160.91
2022-09-17T23:08:42.137Z,101169.53
2022-09-17T23:11:08.544Z,101166.75
2022-09-17T23:13:34.459Z,101163.69
2022-09-17T23:16:01.671Z,101164.53
2022-09-17T23:18:27.315Z,101162.34
2022-09-17T23:20:57.244Z,101165.13
2022-09-17T23:23:24.692Z,101168.41
2022-09-17T23:25:50.411Z,101172.00
2022-09-17T23:28:16.002Z,101169.22
2022-09-17T23:30:41.591Z,101170.66
2022-09-17T23:33:08.584Z,101163.16
2022-09-17T23:35:34.272Z,101165.13
2022-09-17T23:37:59.868Z,101166.75
2022-09-17T23:40:27.867Z,101165.94
2022-09-17T23:42:54.120Z,101162.66
2022-09-17T23:45:19.907Z,101156.50
2022-09-17T23:47:45.508Z,101161.22
2022-09-17T23:50:11.168Z,101159.56
2022-09-17T23:52:36.771Z,101163.16
2022-09-17T23:55:02.868Z,101160.38
2022-09-17T23:57:28.593Z,101164.81
2022-09-17T23:59:54.168Z,101162.03
